createdAt,value
2023-04-15T00:02:24.594Z,9.67
2023-04-15T00:04:52.529Z,9.83
2023-04-15T00:07:20.674Z,11.57
2023-04-15T00:09:48.437Z,8.63
2023-04-15T00:12:16.083Z,11.13
2023-04-15T00:14:44.926Z,12.13
2023-04-15T00:17:12.702Z,10.07
2023-04-15T00:19:41.880Z,9.07
2023-04-15T00:22:09.748Z,9.70
2023-04-15T00:24:37.488Z,9.37
2023-04-15T00:27:05.496Z,10.73
2023-04-15T00:29:33.415Z,10.13
2023-04-15T00:32:01.486Z,10.83
2023-04-15T00:34:29.897Z,9.47
2023-04-15T00:36:59.887Z,8.67
2023-04-15T00:39:28.121Z,8.67
2023-04-15T00:41:57.369Z,10.17
2023-04-15T00:44:25.369Z,13.27
2023-04-15T00:46:53.209Z,10.73
2023-04-15T00:49:21.691Z,10.70
2023-04-15T00:51:49.574Z,11.20
2023-04-15T00:54:18.838Z,13.03
2023-04-15T00:56:46.865Z,11.47
2023-04-15T00:59:15.616Z,9.37
2023-04-15T01:01:45.244Z,8.83
2023-04-15T01:04:15.207Z,11.13
2023-04-15T01:06:43.045Z,9.73
2023-04-15T01:09:12.033Z,11.17
2023-04-15T01:11:41.915Z,10.20
2023-04-15T01:14:11.152Z,13.23
2023-04-15T01:16:41.120Z,9.50
2023-04-15T01:19:11.991Z,7.83
2023-04-15T01:21:40.881Z,8.90
2023-04-15T01:24:10.932Z,8.97
2023-04-15T01:26:42.361Z,11.67
2023-04-15T01:29:10.805Z,11.80
2023-04-15T01:31:38.670Z,10.50
2023-04-15T01:34:06.898Z,10.23
2023-04-15T01:36:35.514Z,14.47
2023-04-15T01:39:03.398Z,14.50
2023-04-15T01:41:31.569Z,11.13
2023-04-15T01:44:00.857Z,13.27
2023-04-15T01:46:29.014Z,16.10
2023-04-15T01:48:57.125Z,12.83
2023-04-15T01:51:27.222Z,15.00
2023-04-15T01:53:56.853Z,13.07
2023-04-15T01:56:25.343Z,13.13
2023-04-15T01:58:53.681Z,11.93
2023-04-15T02:01:23.618Z,10.90
2023-04-15T02:03:52.212Z,10.03
2023-04-15T02:06:20.385Z,13.37
2023-04-15T02:08:49.356Z,14.40
2023-04-15T02:11:17.103Z,11.20
2023-04-15T02:13:44.917Z,12.23
2023-04-15T02:16:19.637Z,13.10
2023-04-15T02:18:48.836Z,10.43
2023-04-15T02:21:16.570Z,13.30
2023-04-15T02:23:45.209Z,12.00
2023-04-15T02:26:14.332Z,13.03
2023-04-15T02:28:42.431Z,11.80
2023-04-15T02:31:10.409Z,13.03
2023-04-15T02:33:38.093Z,13.73
2023-04-15T02:36:08.251Z,14.20
2023-04-15T02:38:36.275Z,15.27
2023-04-15T02:41:03.991Z,12.30
2023-04-15T02:43:32.147Z,13.40
2023-04-15T02:46:01.023Z,12.57
2023-04-15T02:48:28.834Z,10.93
2023-04-15T02:51:16.774Z,13.37
2023-04-15T02:53:44.744Z,13.43
2023-04-15T02:56:12.819Z,14.33
2023-04-15T02:58:40.941Z,14.30
2023-04-15T03:01:09.529Z,13.77
2023-04-15T03:03:37.817Z,14.23
2023-04-15T03:06:05.801Z,13.77
2023-04-15T03:08:35.025Z,15.50
2023-04-15T03:11:02.706Z,13.23
2023-04-15T03:13:30.586Z,14.67
2023-04-15T03:16:00.479Z,13.90
2023-04-15T03:18:29.211Z,16.20
2023-04-15T03:21:02.092Z,14.67
2023-04-15T03:23:32.878Z,13.20
2023-04-15T03:26:04.796Z,14.17
2023-04-15T03:28:34.324Z,17.33
2023-04-15T03:31:03.311Z,17.93
2023-04-15T03:33:31.386Z,12.63
2023-04-15T03:35:59.285Z,15.33
2023-04-15T03:38:27.721Z,15.37
2023-04-15T03:40:55.672Z,12.93
2023-04-15T03:43:25.181Z,15.00
2023-04-15T03:45:53.104Z,15.13
2023-04-15T03:48:21.251Z,14.80
2023-04-15T03:50:49.272Z,15.30
2023-04-15T03:53:17.248Z,14.27
2023-04-15T03:55:44.910Z,13.17
2023-04-15T03:58:12.800Z,12.43
2023-04-15T04:00:42.528Z,14.27
2023-04-15T04:03:10.403Z,15.30
2023-04-15T04:05:41.376Z,13.97
2023-04-15T04:08:09.604Z,12.23
2023-04-15T04:10:37.463Z,13.40
2023-04-15T04:13:05.225Z,18.10
2023-04-15T04:15:33.075Z,14.93
2023-04-15T04:18:02.390Z,13.13
2023-04-15T04:20:31.938Z,13.93
2023-04-15T04:22:59.940Z,14.37
2023-04-15T04:25:28.165Z,14.43
2023-04-15T04:27:56.044Z,16.43
2023-04-15T04:30:23.772Z,13.67
2023-04-15T04:32:51.786Z,13.30
2023-04-15T04:35:21.814Z,15.43
2023-04-15T04:37:49.765Z,11.70
2023-04-15T04:40:17.593Z,14.83
2023-04-15T04:42:46.072Z,16.27
2023-04-15T04:45:14.128Z,12.60
2023-04-15T04:47:42.064Z,14.23
2023-04-15T04:50:10.595Z,15.10
2023-04-15T04:52:40.190Z,13.97
2023-04-15T04:55:08.569Z,12.50
2023-04-15T04:57:37.675Z,14.07
2023-04-15T05:00:06.684Z,15.70
2023-04-15T05:02:34.710Z,13.90
2023-04-15T05:05:02.606Z,12.20
2023-04-15T05:07:30.567Z,13.33
2023-04-15T05:09:59.692Z,14.60
2023-04-15T05:12:27.684Z,13.13
2023-04-15T05:14:55.488Z,16.70
2023-04-15T05:17:23.385Z,16.63
2023-04-15T05:19:51.338Z,15.10
2023-04-15T05:22:19.149Z,11.17
2023-04-15T05:24:46.959Z,13.87
2023-04-15T05:27:16.435Z,12.43
2023-04-15T05:29:44.172Z,12.93
2023-04-15T05:32:12.042Z,12.87
2023-04-15T05:34:39.871Z,11.63
2023-04-15T05:37:07.829Z,14.37
2023-04-15T05:39:35.708Z,14.17
2023-04-15T05:42:03.550Z,13.70
2023-04-15T05:44:33.056Z,12.47
2023-04-15T05:47:00.964Z,14.23
2023-04-15T05:49:28.701Z,14.60
2023-04-15T05:51:56.984Z,12.03
2023-04-15T05:54:25.100Z,15.97
2023-04-15T05:56:52.871Z,13.23
2023-04-15T05:59:20.607Z,15.10
2023-04-15T06:01:49.980Z,14.23
2023-04-15T06:04:17.892Z,17.33
2023-04-15T06:06:46.174Z,14.10
2023-04-15T06:09:14.300Z,16.23
2023-04-15T06:11:42.472Z,17.03
2023-04-15T06:14:10.648Z,14.07
2023-04-15T06:16:38.523Z,15.10
2023-04-15T06:19:07.714Z,17.50
2023-04-15T06:21:35.715Z,18.07
2023-04-15T06:24:03.792Z,14.27
2023-04-15T06:26:31.608Z,16.57
2023-04-15T06:28:59.559Z,15.50
2023-04-15T06:31:27.793Z,16.60
2023-04-15T06:33:55.633Z,17.50
2023-04-15T06:36:25.130Z,19.83
2023-04-15T06:38:52.881Z,15.60
2023-04-15T06:41:20.851Z,19.20
2023-04-15T06:43:48.695Z,17.47
2023-04-15T06:46:16.573Z,17.37
2023-04-15T06:48:47.708Z,18.97
2023-04-15T06:51:15.685Z,18.87
2023-04-15T06:53:44.879Z,18.90
2023-04-15T06:56:12.829Z,15.17
2023-04-15T06:58:40.671Z,14.60
2023-04-15T07:01:08.846Z,16.53
2023-04-15T07:03:36.597Z,15.00
2023-04-15T07:06:06.448Z,17.03
2023-04-15T07:08:34.513Z,17.27
2023-04-15T07:11:04.040Z,17.63
2023-04-15T07:13:33.324Z,15.90
2023-04-15T07:16:01.279Z,16.70
2023-04-15T07:18:29.016Z,15.70
2023-04-15T07:20:56.766Z,13.43
2023-04-15T07:23:24.488Z,13.60
2023-04-15T07:25:53.025Z,11.40
2023-04-15T07:28:22.419Z,12.33
2023-04-15T07:30:50.373Z,12.63
2023-04-15T07:33:18.209Z,14.57
2023-04-15T07:35:46.840Z,10.57
2023-04-15T07:38:14.572Z,9.67
2023-04-15T07:40:42.396Z,11.30
2023-04-15T07:43:10.781Z,10.47
2023-04-15T07:45:40.277Z,11.13
2023-04-15T07:48:08.365Z,11.30
2023-04-15T07:50:36.087Z,10.13
2023-04-15T07:53:03.839Z,10.70
2023-04-15T07:55:31.619Z,10.37
2023-04-15T07:57:59.311Z,11.27
2023-04-15T08:00:28.144Z,10.97
2023-04-15T08:02:59.497Z,10.63
2023-04-15T08:05:27.781Z,11.67
2023-04-15T08:07:55.596Z,10.90
2023-04-15T08:10:23.947Z,9.40
2023-04-15T08:12:54.308Z,7.47
2023-04-15T08:15:22.224Z,7.50
2023-04-15T08:17:49.991Z,7.20
2023-04-15T08:20:19.625Z,7.20
2023-04-15T08:22:51.773Z,5.93
2023-04-15T08:25:19.963Z,5.60
2023-04-15T08:27:47.878Z,7.60
2023-04-15T08:30:15.968Z,6.47
2023-04-15T08:32:44.088Z,5.37
2023-04-15T08:35:12.141Z,6.50
2023-04-15T08:37:41.378Z,7.37
2023-04-15T08:40:10.822Z,4.60
2023-04-15T08:42:43.675Z,5.20
2023-04-15T08:45:13.292Z,6.10
2023-04-15T08:47:41.939Z,5.67
2023-04-15T08:50:11.763Z,4.60
2023-04-15T08:52:41.536Z,4.30
2023-04-15T08:55:10.523Z,4.40
2023-04-15T08:57:39.815Z,3.77
2023-04-15T09:00:09.450Z,4.47
2023-04-15T09:02:37.755Z,3.73
2023-04-15T09:05:06.967Z,4.50
2023-04-15T09:07:35.371Z,5.43
2023-04-15T09:10:05.397Z,4.60
2023-04-15T09:12:35.932Z,3.97
2023-04-15T09:15:03.873Z,4.40
2023-04-15T09:17:34.505Z,5.13
2023-04-15T09:20:10.019Z,7.63
2023-04-15T09:22:38.493Z,4.90
2023-04-15T09:25:27.761Z,7.50
2023-04-15T09:27:57.481Z,7.00
2023-04-15T09:30:25.290Z,5.03
2023-04-15T09:32:54.100Z,5.80
2023-04-15T09:35:23.278Z,5.33
2023-04-15T09:37:51.955Z,6.40
2023-04-15T09:40:34.079Z,5.80
2023-04-15T09:43:02.997Z,5.50
2023-04-15T09:45:31.124Z,5.87
2023-04-15T09:47:59.493Z,5.67
2023-04-15T09:50:29.347Z,6.50
2023-04-15T09:52:57.402Z,4.83
2023-04-15T09:55:25.150Z,6.90
2023-04-15T09:57:55.049Z,4.90
2023-04-15T10:00:22.744Z,3.87
2023-04-15T10:02:50.874Z,3.83
2023-04-15T10:05:18.663Z,4.47
2023-04-15T10:07:48.242Z,4.73
2023-04-15T10:10:16.723Z,5.30
2023-04-15T10:12:45.493Z,5.00
2023-04-15T10:15:17.840Z,7.03
2023-04-15T10:17:46.781Z,6.43
2023-04-15T10:20:16.102Z,4.87
2023-04-15T10:22:47.808Z,5.73
2023-04-15T10:25:16.656Z,6.07
2023-04-15T10:27:44.653Z,5.73
2023-04-15T10:30:13.327Z,6.33
2023-04-15T10:32:43.169Z,5.07
2023-04-15T10:35:12.196Z,5.60
2023-04-15T10:37:40.069Z,5.77
2023-04-15T10:40:28.018Z,5.53
2023-04-15T10:42:57.006Z,7.13
2023-04-15T10:45:27.338Z,5.90
2023-04-15T10:47:59.630Z,6.30
2023-04-15T10:50:29.900Z,5.00
2023-04-15T10:52:58.247Z,6.40
2023-04-15T10:55:27.577Z,7.70
2023-04-15T10:57:59.267Z,6.20
2023-04-15T11:00:29.569Z,8.57
2023-04-15T11:03:00.141Z,7.87
2023-04-15T11:05:53.181Z,6.10
2023-04-15T11:08:22.049Z,6.00
2023-04-15T11:10:54.935Z,5.77
2023-04-15T11:13:31.452Z,5.33
2023-04-15T11:16:04.635Z,5.03
2023-04-15T11:18:35.786Z,5.50
2023-04-15T11:21:06.197Z,4.77
2023-04-15T11:23:39.960Z,5.50
2023-04-15T11:26:11.878Z,5.80
2023-04-15T11:28:41.357Z,5.00
2023-04-15T11:31:11.953Z,5.70
2023-04-15T11:33:47.691Z,4.70
2023-04-15T11:36:15.595Z,5.63
2023-04-15T11:38:48.281Z,4.23
2023-04-15T11:41:16.833Z,4.87
2023-04-15T11:43:44.744Z,5.17
2023-04-15T11:46:12.671Z,4.70
2023-04-15T11:48:44.892Z,5.87
2023-04-15T11:51:13.526Z,4.83
2023-04-15T11:53:45.885Z,5.00
2023-04-15T11:56:19.058Z,5.10
2023-04-15T11:58:47.282Z,4.83
2023-04-15T12:01:15.360Z,4.70
2023-04-15T12:03:47.000Z,6.13
2023-04-15T12:06:19.168Z,5.63
2023-04-15T12:09:01.464Z,5.63
2023-04-15T12:11:31.470Z,6.43
2023-04-15T12:14:03.853Z,9.40
2023-04-15T12:16:32.110Z,5.67
2023-04-15T12:19:02.318Z,6.33
2023-04-15T12:21:36.249Z,5.63
2023-04-15T12:24:07.479Z,6.83
2023-04-15T12:26:37.938Z,5.53
2023-04-15T12:29:07.986Z,4.83
2023-04-15T12:31:37.141Z,4.63
2023-04-15T12:34:09.858Z,5.63
2023-04-15T12:36:37.913Z,5.23
2023-04-15T12:39:06.122Z,3.30
2023-04-15T12:41:34.624Z,6.67
2023-04-15T12:44:03.068Z,6.07
2023-04-15T12:46:31.426Z,4.40
2023-04-15T12:48:59.609Z,4.67
2023-04-15T12:51:29.387Z,4.80
2023-04-15T12:53:58.244Z,3.70
2023-04-15T12:56:26.865Z,4.60
2023-04-15T12:58:54.553Z,4.13
2023-04-15T13:01:22.541Z,4.97
2023-04-15T13:03:51.582Z,5.83
2023-04-15T13:06:19.503Z,3.53
2023-04-15T13:08:57.967Z,3.57
2023-04-15T13:11:27.222Z,4.57
2023-04-15T13:13:55.473Z,4.17
2023-04-15T13:16:23.772Z,6.63
2023-04-15T13:18:51.724Z,4.70
2023-04-15T13:21:19.872Z,5.73
2023-04-15T13:23:49.858Z,5.93
2023-04-15T13:26:18.802Z,4.93
2023-04-15T13:28:47.161Z,4.87
2023-04-15T13:31:15.046Z,6.33
2023-04-15T13:33:42.820Z,4.33
2023-04-15T13:36:10.553Z,5.27
2023-04-15T13:38:38.384Z,3.67
2023-04-15T13:41:07.723Z,5.43
2023-04-15T13:43:35.671Z,5.57
2023-04-15T13:46:03.964Z,4.97
2023-04-15T13:48:32.121Z,4.60
2023-04-15T13:51:00.099Z,4.73
2023-04-15T13:53:38.292Z,3.60
2023-04-15T13:56:09.369Z,4.40
2023-04-15T13:58:38.267Z,3.20
2023-04-15T14:01:07.549Z,4.37
2023-04-15T14:03:35.868Z,5.10
2023-04-15T14:06:04.134Z,3.97
2023-04-15T14:08:32.145Z,5.17
2023-04-15T14:10:59.985Z,5.20
2023-04-15T14:13:29.389Z,4.90
2023-04-15T14:15:57.808Z,3.83
2023-04-15T14:18:25.576Z,3.57
2023-04-15T14:20:53.316Z,3.27
2023-04-15T14:23:21.037Z,4.00
2023-04-15T14:25:48.936Z,4.80
2023-04-15T14:28:17.178Z,4.30
2023-04-15T14:30:46.489Z,3.30
2023-04-15T14:33:14.185Z,4.23
2023-04-15T14:35:42.193Z,3.80
2023-04-15T14:38:11.616Z,3.13
2023-04-15T14:40:39.499Z,4.73
2023-04-15T14:43:07.266Z,3.70
2023-04-15T14:45:36.818Z,2.87
2023-04-15T14:48:09.710Z,5.20
2023-04-15T14:50:37.402Z,3.77
2023-04-15T14:53:05.194Z,3.67
2023-04-15T14:55:33.103Z,4.33
2023-04-15T14:58:02.487Z,3.67
2023-04-15T15:00:30.305Z,5.90
2023-04-15T15:02:58.075Z,3.63
2023-04-15T15:05:27.487Z,4.33
2023-04-15T15:07:55.211Z,3.80
2023-04-15T15:10:46.676Z,5.03
2023-04-15T15:13:12.084Z,5.33
2023-04-15T15:15:40.293Z,3.63
2023-04-15T15:18:08.202Z,4.87
2023-04-15T15:20:37.800Z,3.80
2023-04-15T15:23:05.509Z,3.97
2023-04-15T15:25:33.209Z,4.93
2023-04-15T15:28:01.319Z,4.03
2023-04-15T15:30:29.050Z,5.93
2023-04-15T15:32:56.997Z,4.03
2023-04-15T15:35:26.026Z,7.03
2023-04-15T15:37:55.926Z,3.13
2023-04-15T15:40:23.878Z,6.13
2023-04-15T15:42:51.720Z,3.20
2023-04-15T15:45:19.629Z,4.40
2023-04-15T15:47:47.336Z,4.30
2023-04-15T15:50:15.502Z,4.97
2023-04-15T15:52:43.630Z,3.17
2023-04-15T15:55:12.857Z,3.37
2023-04-15T15:57:40.759Z,3.53
2023-04-15T16:00:12.007Z,4.43
2023-04-15T16:05:12.378Z,7.33
2023-04-15T16:07:40.121Z,4.50
2023-04-15T16:10:08.835Z,6.00
2023-04-15T16:12:37.936Z,4.83
2023-04-15T16:15:06.534Z,5.53
2023-04-15T16:17:34.378Z,6.33
2023-04-15T16:20:05.286Z,3.93
2023-04-15T16:22:34.203Z,4.93
2023-04-15T16:25:02.369Z,6.57
2023-04-15T16:27:30.339Z,5.03
2023-04-15T16:29:59.579Z,6.80
2023-04-15T16:32:27.758Z,4.90
2023-04-15T16:34:55.524Z,5.47
2023-04-15T16:37:23.534Z,6.07
2023-04-15T16:39:51.334Z,4.40
2023-04-15T16:42:19.106Z,5.20
2023-04-15T16:44:46.870Z,6.13
2023-04-15T16:47:15.975Z,5.03
2023-04-15T16:49:43.730Z,7.43
2023-04-15T16:52:11.543Z,6.30
2023-04-15T16:54:41.460Z,8.17
2023-04-15T16:57:09.287Z,9.13
2023-04-15T16:59:38.058Z,5.97
2023-04-15T17:02:06.039Z,7.20
2023-04-15T17:04:35.853Z,7.17
2023-04-15T17:07:04.040Z,4.97
2023-04-15T17:09:31.947Z,5.37
2023-04-15T17:11:59.731Z,9.33
2023-04-15T17:14:28.615Z,6.13
2023-04-15T17:16:56.713Z,6.70
2023-04-15T17:19:24.510Z,8.10
2023-04-15T17:21:55.090Z,10.93
2023-04-15T17:24:22.975Z,7.90
2023-04-15T17:26:50.970Z,7.47
2023-04-15T17:29:18.574Z,9.07
2023-04-15T17:31:46.246Z,10.83
2023-04-15T17:34:15.950Z,8.30
2023-04-15T17:36:43.971Z,7.00
2023-04-15T17:39:14.045Z,8.40
2023-04-15T17:41:41.746Z,6.40
2023-04-15T17:44:09.472Z,7.23
2023-04-15T17:46:37.215Z,6.87
2023-04-15T17:49:05.919Z,3.87
2023-04-15T17:51:33.849Z,6.33
2023-04-15T17:54:07.861Z,7.43
2023-04-15T17:56:37.260Z,9.43
2023-04-15T17:59:05.182Z,6.97
2023-04-15T18:01:33.081Z,7.47
2023-04-15T18:04:00.903Z,6.50
2023-04-15T18:06:28.657Z,7.63
2023-04-15T18:08:56.417Z,9.50
2023-04-15T18:11:24.145Z,6.70
2023-04-15T18:13:53.183Z,10.10
2023-04-15T18:16:21.210Z,10.33
2023-04-15T18:18:48.898Z,9.67
2023-04-15T18:21:16.598Z,6.57
2023-04-15T18:23:44.276Z,7.00
2023-04-15T18:26:12.049Z,6.43
2023-04-15T18:28:40.104Z,13.10
2023-04-15T18:31:09.225Z,8.77
2023-04-15T18:33:37.435Z,8.50
2023-04-15T18:36:05.370Z,8.10
2023-04-15T18:38:33.067Z,7.10
2023-04-15T18:41:01.278Z,9.80
2023-04-15T18:43:29.080Z,13.17
2023-04-15T18:45:56.812Z,6.90
2023-04-15T18:48:26.849Z,8.27
2023-04-15T18:50:54.537Z,12.17
2023-04-15T18:53:22.490Z,7.30
2023-04-15T18:55:50.147Z,8.57
2023-04-15T18:58:18.028Z,5.80
2023-04-15T19:00:45.838Z,7.97
2023-04-15T19:03:13.981Z,11.30
2023-04-15T19:05:43.342Z,6.63
2023-04-15T19:08:11.729Z,9.17
2023-04-15T19:10:39.847Z,9.20
2023-04-15T19:13:07.639Z,11.90
2023-04-15T19:15:35.527Z,8.17
2023-04-15T19:18:05.353Z,8.03
2023-04-15T19:20:36.608Z,6.17
2023-04-15T19:23:07.903Z,7.70
2023-04-15T19:25:35.612Z,9.03
2023-04-15T19:28:03.370Z,11.33
2023-04-15T19:30:32.443Z,13.43
2023-04-15T19:33:00.312Z,7.43
2023-04-15T19:35:28.231Z,9.53
2023-04-15T19:37:56.096Z,8.33
2023-04-15T19:40:25.844Z,8.67
2023-04-15T19:42:53.765Z,7.67
2023-04-15T19:45:21.483Z,12.17
2023-04-15T19:47:49.326Z,8.17
2023-04-15T19:50:17.842Z,9.33
2023-04-15T19:52:45.568Z,8.43
2023-04-15T19:55:13.598Z,6.00
2023-04-15T19:57:42.749Z,8.43
2023-04-15T20:00:11.302Z,10.70
2023-04-15T20:02:39.146Z,9.57
2023-04-15T20:05:09.795Z,9.97
2023-04-15T20:07:37.939Z,6.67
2023-04-15T20:10:10.676Z,6.80
2023-04-15T20:12:51.184Z,7.47
2023-04-15T20:15:22.532Z,9.33
2023-04-15T20:17:50.677Z,7.10
2023-04-15T20:20:18.505Z,12.20
2023-04-15T20:22:46.407Z,10.47
2023-04-15T20:25:14.194Z,11.87
2023-04-15T20:27:43.316Z,16.60
2023-04-15T20:30:11.833Z,13.73
2023-04-15T20:32:39.690Z,9.53
2023-04-15T20:35:08.295Z,10.70
2023-04-15T20:37:36.284Z,13.37
2023-04-15T20:40:04.155Z,10.73
2023-04-15T20:42:33.767Z,13.03
2023-04-15T20:45:03.215Z,14.57
2023-04-15T20:47:31.245Z,15.90
2023-04-15T20:49:59.104Z,13.20
2023-04-15T20:52:26.887Z,13.10
2023-04-15T20:54:54.729Z,12.47
2023-04-15T20:57:24.498Z,8.20
2023-04-15T20:59:52.750Z,9.10
2023-04-15T21:02:24.407Z,12.20
2023-04-15T21:04:52.420Z,12.73
2023-04-15T21:07:20.462Z,13.13
2023-04-15T21:09:49.191Z,15.00
2023-04-15T21:12:16.917Z,15.10
2023-04-15T21:14:44.664Z,21.90
2023-04-15T21:17:12.700Z,21.47
2023-04-15T21:19:41.885Z,18.80
2023-04-15T21:22:09.740Z,24.23
2023-04-15T21:24:37.654Z,19.93
2023-04-15T21:27:05.891Z,19.77
2023-04-15T21:29:33.842Z,23.43
2023-04-15T21:32:02.093Z,24.27
2023-04-15T21:34:30.044Z,30.50
2023-04-15T21:36:59.151Z,38.43
2023-04-15T21:39:27.230Z,32.87
2023-04-15T21:41:55.005Z,24.63
2023-04-15T21:44:22.809Z,23.57
2023-04-15T21:46:51.033Z,21.57
2023-04-15T21:49:20.340Z,19.33
2023-04-15T21:51:48.572Z,18.37
2023-04-15T21:54:17.814Z,20.67
2023-04-15T21:56:46.031Z,20.37
2023-04-15T21:59:13.698Z,14.00
2023-04-15T22:01:41.636Z,17.33
2023-04-15T22:04:10.911Z,17.87
2023-04-15T22:06:39.419Z,20.53
2023-04-15T22:09:07.173Z,16.73
2023-04-15T22:11:36.780Z,16.60
2023-04-15T22:14:05.300Z,25.40
2023-04-15T22:16:33.103Z,25.03
2023-04-15T22:19:02.557Z,26.47
2023-04-15T22:21:30.310Z,23.53
2023-04-15T22:24:38.053Z,28.73
2023-04-15T22:26:47.227Z,30.97
2023-04-15T22:29:14.976Z,29.77
2023-04-15T22:31:43.819Z,29.40
2023-04-15T22:34:11.595Z,27.63
2023-04-15T22:36:39.347Z,28.10
2023-04-15T22:39:07.190Z,33.10
2023-04-15T22:41:35.268Z,31.27
2023-04-15T22:44:04.524Z,29.97
2023-04-15T22:46:32.379Z,30.93
2023-04-15T22:49:00.281Z,30.50
2023-04-15T22:51:29.068Z,37.00
2023-04-15T22:53:57.183Z,33.27
2023-04-15T22:56:25.044Z,32.00
2023-04-15T22:58:52.982Z,28.73
2023-04-15T23:01:22.185Z,30.80
2023-04-15T23:03:56.700Z,30.27
2023-04-15T23:06:34.208Z,32.93
2023-04-15T23:09:01.960Z,32.30
2023-04-15T23:11:29.773Z,33.00
2023-04-15T23:13:57.615Z,32.40
2023-04-15T23:16:26.921Z,31.90
2023-04-15T23:18:55.161Z,32.77
2023-04-15T23:21:24.801Z,32.00
2023-04-15T23:23:53.871Z,31.57
2023-04-15T23:26:21.580Z,34.13
2023-04-15T23:28:49.403Z,30.97
2023-04-15T23:31:17.134Z,39.93
2023-04-15T23:33:46.295Z,51.63
2023-04-15T23:36:14.265Z,41.90
2023-04-15T23:38:42.926Z,42.43
2023-04-15T23:41:11.930Z,33.37
2023-04-15T23:43:39.795Z,31.90
2023-04-15T23:46:07.535Z,32.63
2023-04-15T23:48:35.434Z,39.50
2023-04-15T23:51:04.961Z,42.70
2023-04-15T23:53:32.944Z,38.33
2023-04-15T23:56:01.377Z,35.13
2023-04-15T23:58:29.193Z,36.90
